Time;durP1;ratioP1;P1;durP2;ratioP2;P2;SDS_P1;SDS_P2;PMS_P1;PMS_P2;Temp;Humidity;BMP_temperature;BMP_pressure;BME280_temperature;BME280_humidity;BME280_pressure;Samples;Min_cycle;Max_cycle;Signal;HPM_P1;HPM_P2
2021/07/13 00:02:15;;;;;;;9.68;8.55;;;20.60;95.30;;;;;;5128376;28;20055;-88
2021/07/13 00:04:40;;;;;;;10.80;8.60;;;20.50;95.30;;;;;;5126911;28;20622;-86
2021/07/13 00:07:06;;;;;;;11.05;7.95;;;20.50;95.40;;;;;;5114574;28;20046;-86
2021/07/13 00:09:32;;;;;;;10.43;8.35;;;20.50;95.50;;;;;;5111293;28;20070;-87
2021/07/13 00:11:58;;;;;;;9.85;8.52;;;20.40;95.60;;;;;;5113296;28;20040;-89
2021/07/13 00:14:24;;;;;;;11.30;8.07;;;20.40;95.60;;;;;;5117431;28;20118;-88
2021/07/13 00:16:50;;;;;;;12.63;8.65;;;20.40;95.70;;;;;;5107997;28;20536;-87
2021/07/13 00:19:16;;;;;;;9.27;7.95;;;20.40;95.90;;;;;;5108972;28;20054;-87
2021/07/13 00:21:42;;;;;;;10.77;8.95;;;20.30;95.90;;;;;;5110801;28;20066;-88
2021/07/13 00:24:08;;;;;;;11.07;8.23;;;20.30;95.90;;;;;;5105710;28;20267;-89
2021/07/13 00:26:34;;;;;;;9.75;8.23;;;20.30;96.00;;;;;;5101680;28;20043;-89
2021/07/13 00:29:00;;;;;;;10.77;9.23;;;20.20;96.10;;;;;;5113581;28;20042;-89
2021/07/13 00:31:26;;;;;;;10.45;9.05;;;20.20;96.40;;;;;;5116856;28;20044;-88
2021/07/13 00:33:51;;;;;;;10.98;9.43;;;20.20;96.20;;;;;;5111379;28;20059;-88
2021/07/13 00:36:17;;;;;;;11.70;8.57;;;20.20;96.30;;;;;;5123044;28;20027;-90
2021/07/13 00:38:42;;;;;;;10.55;8.20;;;20.10;96.30;;;;;;5123141;28;20054;-89
2021/07/13 00:41:08;;;;;;;10.77;8.75;;;20.10;96.40;;;;;;5106670;28;20104;-89
2021/07/13 00:43:33;;;;;;;11.80;8.27;;;20.10;96.50;;;;;;5116457;28;20031;-87
2021/07/13 00:46:00;;;;;;;13.35;9.43;;;20.00;96.50;;;;;;5117007;28;20035;-88
2021/07/13 00:48:26;;;;;;;10.90;8.75;;;20.00;96.60;;;;;;5114688;28;20114;-88
2021/07/13 00:50:52;;;;;;;11.18;9.10;;;20.00;96.70;;;;;;5111448;28;20224;-87
2021/07/13 00:53:20;;;;;;;9.73;8.65;;;19.90;96.70;;;;;;5113023;28;20130;-89
2021/07/13 00:55:46;;;;;;;9.15;8.15;;;19.90;96.70;;;;;;5114744;28;20394;-86
2021/07/13 00:58:11;;;;;;;10.07;9.02;;;19.90;96.80;;;;;;5115332;28;20040;-88
2021/07/13 01:00:36;;;;;;;11.52;8.93;;;19.80;96.90;;;;;;5115854;28;20035;-88
2021/07/13 01:03:04;;;;;;;10.13;8.60;;;19.80;97.00;;;;;;5115817;28;20405;-89
2021/07/13 01:05:38;;;;;;;12.52;8.80;;;19.80;97.00;;;;;;5115892;28;20027;-88
2021/07/13 01:08:28;;;;;;;11.70;9.23;;;19.70;97.00;;;;;;5113876;28;20180;-87
2021/07/13 01:11:04;;;;;;;10.70;8.40;;;19.70;97.00;;;;;;5109762;28;20031;-88
2021/07/13 01:13:48;;;;;;;10.63;8.35;;;19.70;97.10;;;;;;5102459;28;20044;-87
2021/07/13 01:16:27;;;;;;;10.60;8.80;;;19.70;97.10;;;;;;5106674;28;20043;-87
2021/07/13 01:19:13;;;;;;;10.00;8.57;;;19.60;97.10;;;;;;5122851;28;20039;-88
2021/07/13 01:22:00;;;;;;;9.82;8.57;;;19.60;97.10;;;;;;5118347;28;20040;-88
2021/07/13 01:25:01;;;;;;;9.68;7.90;;;19.50;97.20;;;;;;5127194;28;20035;-86
2021/07/13 01:27:49;;;;;;;12.05;8.63;;;19.50;97.30;;;;;;5113508;28;20128;-88
2021/07/13 01:30:22;;;;;;;11.80;8.95;;;19.50;97.40;;;;;;5110298;28;20051;-89
2021/07/13 01:32:53;;;;;;;13.70;8.52;;;19.50;97.50;;;;;;5117875;28;20449;-89
2021/07/13 01:35:24;;;;;;;9.52;8.52;;;19.40;97.60;;;;;;5116914;28;20040;-89
2021/07/13 01:37:53;;;;;;;9.73;7.97;;;19.40;97.80;;;;;;5116952;28;20027;-89
2021/07/13 01:40:21;;;;;;;11.02;8.32;;;19.40;97.80;;;;;;5112696;28;20081;-88
2021/07/13 01:42:47;;;;;;;9.75;7.75;;;19.30;97.80;;;;;;5113865;28;20035;-87
2021/07/13 01:45:14;;;;;;;11.35;7.75;;;19.30;97.80;;;;;;5111374;28;20043;-87
2021/07/13 01:47:40;;;;;;;10.70;7.93;;;19.30;97.80;;;;;;5110640;28;20040;-88
2021/07/13 01:50:08;;;;;;;9.95;7.57;;;19.30;97.70;;;;;;5117033;28;20031;-88
2021/07/13 01:52:35;;;;;;;8.55;7.13;;;19.30;97.70;;;;;;5114839;28;20043;-88
2021/07/13 01:55:04;;;;;;;10.80;7.88;;;19.30;97.70;;;;;;5118234;28;20112;-87
2021/07/13 01:57:31;;;;;;;11.35;8.65;;;19.30;97.60;;;;;;5113117;28;20059;-88
2021/07/13 01:59:59;;;;;;;9.50;7.82;;;19.30;97.60;;;;;;5118321;28;20035;-87
2021/07/13 02:02:27;;;;;;;9.43;8.00;;;19.30;97.70;;;;;;5117266;28;20403;-88
2021/07/13 02:04:55;;;;;;;8.35;7.03;;;19.30;97.70;;;;;;5111864;28;20070;-88
2021/07/13 02:07:22;;;;;;;10.20;7.68;;;19.20;97.70;;;;;;5116237;28;20329;-89
2021/07/13 02:09:48;;;;;;;8.52;7.60;;;19.30;97.80;;;;;;5119151;28;20335;-89
2021/07/13 02:12:14;;;;;;;10.73;7.28;;;19.20;97.80;;;;;;5122830;28;20028;-89
2021/07/13 02:14:40;;;;;;;11.43;7.47;;;19.20;97.80;;;;;;5107180;28;20040;-88
2021/07/13 02:17:06;;;;;;;10.55;7.50;;;19.10;97.80;;;;;;5110430;28;20458;-88
2021/07/13 02:19:34;;;;;;;9.23;7.80;;;19.20;97.90;;;;;;5118688;28;20035;-89
2021/07/13 02:22:00;;;;;;;10.35;6.63;;;19.20;97.90;;;;;;5118918;28;20051;-87
2021/07/13 02:24:25;;;;;;;8.25;7.45;;;19.10;97.90;;;;;;5114008;28;20038;-88
2021/07/13 02:26:56;;;;;;;10.70;7.35;;;19.10;97.90;;;;;;5115822;28;20111;-88
2021/07/13 02:29:41;;;;;;;9.45;6.55;;;19.10;97.90;;;;;;5113163;28;20063;-88
2021/07/13 02:32:14;;;;;;;7.65;6.68;;;19.10;97.90;;;;;;5120356;28;20069;-88
2021/07/13 02:34:41;;;;;;;;;;;19.10;97.90;;;;;;5127530;28;20595;-87
2021/07/13 02:37:10;;;;;;;8.48;7.13;;;19.10;97.90;;;;;;5120379;28;19908;-89
2021/07/13 02:39:38;;;;;;;9.00;6.25;;;19.00;97.90;;;;;;5111432;28;20036;-89
2021/07/13 02:42:05;;;;;;;8.05;7.07;;;19.00;97.90;;;;;;5101789;28;20092;-87
2021/07/13 02:44:33;;;;;;;8.32;6.93;;;19.00;98.00;;;;;;5105992;28;20113;-89
2021/07/13 02:47:03;;;;;;;7.97;6.78;;;19.00;98.00;;;;;;5129583;28;20074;-90
2021/07/13 02:49:31;;;;;;;7.82;5.68;;;19.00;98.00;;;;;;5113652;28;20040;-88
2021/07/13 02:51:58;;;;;;;9.35;7.13;;;19.00;97.90;;;;;;5118776;28;20089;-89
2021/07/13 02:54:27;;;;;;;6.45;5.63;;;19.00;97.90;;;;;;5109596;28;20403;-88
2021/07/13 02:56:54;;;;;;;8.48;6.78;;;19.00;97.90;;;;;;5110363;28;20123;-87
2021/07/13 02:59:24;;;;;;;8.43;6.75;;;19.00;98.00;;;;;;5118906;28;20039;-89
2021/07/13 03:01:50;;;;;;;7.45;6.45;;;18.90;98.00;;;;;;5110905;28;20047;-89
2021/07/13 03:04:17;;;;;;;7.80;6.65;;;18.90;98.00;;;;;;5131571;28;20031;-89
2021/07/13 03:06:44;;;;;;;6.50;5.78;;;18.90;98.00;;;;;;5127771;28;20294;-88
2021/07/13 03:09:11;;;;;;;9.50;6.65;;;18.90;98.10;;;;;;5109676;28;20039;-89
2021/07/13 03:11:38;;;;;;;6.95;6.25;;;18.90;98.10;;;;;;5115375;28;20040;-88
2021/07/13 03:14:07;;;;;;;8.40;5.97;;;18.90;98.10;;;;;;5117978;28;20110;-89
2021/07/13 03:16:35;;;;;;;6.85;5.78;;;18.90;98.10;;;;;;5112150;28;20103;-89
2021/07/13 03:19:01;;;;;;;9.55;6.43;;;18.90;98.10;;;;;;5112926;28;20039;-88
2021/07/13 03:21:33;;;;;;;7.10;6.22;;;18.90;98.10;;;;;;5116475;27;20556;-90
2021/07/13 03:24:02;;;;;;;8.82;6.57;;;18.90;98.10;;;;;;5101660;28;20089;-88
2021/07/13 03:26:31;;;;;;;6.35;5.72;;;18.90;98.00;;;;;;5115917;28;20036;-89
2021/07/13 03:28:58;;;;;;;6.55;5.95;;;18.90;98.00;;;;;;5110246;28;20064;-89
2021/07/13 03:31:25;;;;;;;6.88;5.88;;;18.90;98.00;;;;;;5117853;28;20042;-89
2021/07/13 03:33:51;;;;;;;9.55;6.13;;;18.90;98.10;;;;;;5111716;28;20182;-90
2021/07/13 03:36:18;;;;;;;10.02;6.70;;;18.90;98.00;;;;;;5104511;28;20083;-90
2021/07/13 03:38:44;;;;;;;7.03;6.03;;;18.90;98.00;;;;;;5122139;28;20055;-89
2021/07/13 03:41:10;;;;;;;9.10;6.32;;;18.90;98.00;;;;;;5114624;28;20044;-90
2021/07/13 03:43:36;;;;;;;8.07;6.07;;;18.90;98.10;;;;;;5105853;28;20096;-89
2021/07/13 03:46:01;;;;;;;9.07;7.22;;;18.90;98.10;;;;;;5117031;28;20039;-90
2021/07/13 03:48:28;;;;;;;7.10;6.18;;;18.90;98.10;;;;;;5113939;28;20478;-90
2021/07/13 03:50:53;;;;;;;8.25;5.43;;;18.90;98.10;;;;;;5117858;28;20303;-90
2021/07/13 03:53:19;;;;;;;7.35;6.05;;;18.90;98.00;;;;;;5130115;28;20041;-90
2021/07/13 03:55:45;;;;;;;8.48;6.40;;;18.90;98.20;;;;;;5126922;28;20113;-89
2021/07/13 03:58:11;;;;;;;8.98;5.53;;;18.90;98.00;;;;;;5112689;28;20089;-89
2021/07/13 04:00:36;;;;;;;5.90;5.20;;;19.00;97.90;;;;;;5105096;28;20051;-90
2021/07/13 04:03:03;;;;;;;7.25;6.13;;;19.00;97.90;;;;;;5102905;28;20039;-89
2021/07/13 04:05:29;;;;;;;8.80;5.10;;;19.00;97.70;;;;;;5115619;28;20122;-90
2021/07/13 04:07:55;;;;;;;6.70;4.93;;;19.00;97.60;;;;;;5110505;28;20119;-88
2021/07/13 04:10:20;;;;;;;7.60;6.00;;;19.10;97.60;;;;;;5116532;28;20057;-89
2021/07/13 04:12:46;;;;;;;7.85;5.80;;;19.10;97.60;;;;;;5112704;28;20470;-88
2021/07/13 04:15:12;;;;;;;10.93;5.40;;;19.20;97.60;;;;;;5111931;28;20119;-90
2021/07/13 04:17:40;;;;;;;7.35;5.57;;;19.20;97.60;;;;;;5106561;28;20484;-89
2021/07/13 04:20:07;;;;;;;7.47;5.45;;;19.30;97.70;;;;;;5109685;28;20048;-90
2021/07/13 04:22:33;;;;;;;7.43;5.75;;;19.30;97.60;;;;;;5107262;28;20035;-88
2021/07/13 04:24:59;;;;;;;6.55;5.40;;;19.30;97.50;;;;;;5109257;28;20031;-90
2021/07/13 04:27:25;;;;;;;7.85;5.88;;;19.40;97.50;;;;;;5116759;28;20047;-88
2021/07/13 04:29:51;;;;;;;5.97;5.38;;;19.40;97.50;;;;;;5117671;28;20114;-88
2021/07/13 04:32:17;;;;;;;5.85;5.25;;;19.40;97.30;;;;;;5113641;28;20349;-88
2021/07/13 04:34:42;;;;;;;6.13;5.05;;;19.40;97.30;;;;;;5118376;28;20100;-89
2021/07/13 04:37:08;;;;;;;5.95;5.20;;;19.40;97.30;;;;;;5122438;28;20310;-89
2021/07/13 04:39:33;;;;;;;6.38;5.20;;;19.50;97.30;;;;;;5119127;28;20046;-90
2021/07/13 04:42:00;;;;;;;6.13;5.18;;;19.50;97.30;;;;;;5119547;28;20159;-89
2021/07/13 04:44:25;;;;;;;6.38;5.00;;;19.60;97.20;;;;;;5128745;28;20077;-89
2021/07/13 04:46:53;;;;;;;7.10;4.97;;;19.60;97.20;;;;;;5118431;28;20028;-90
2021/07/13 04:49:19;;;;;;;5.18;4.68;;;19.60;97.20;;;;;;5114449;28;20491;-89
2021/07/13 04:51:44;;;;;;;7.35;5.53;;;19.70;97.10;;;;;;5110494;28;20150;-90
2021/07/13 04:54:11;;;;;;;5.70;5.03;;;19.70;97.10;;;;;;5104830;28;20447;-90
2021/07/13 04:56:36;;;;;;;8.25;5.93;;;19.70;97.10;;;;;;5105784;28;20044;-90
2021/07/13 04:59:06;;;;;;;5.70;4.78;;;19.80;97.00;;;;;;5101526;28;20468;-90
2021/07/13 05:01:31;;;;;;;7.05;5.15;;;19.80;96.90;;;;;;5096515;28;20112;-88
2021/07/13 05:03:57;;;;;;;4.93;4.22;;;19.80;96.80;;;;;;5099554;28;20044;-89
2021/07/13 05:06:22;;;;;;;5.93;5.32;;;19.90;96.70;;;;;;5107723;28;20039;-88
2021/07/13 05:08:48;;;;;;;4.47;4.07;;;19.90;96.80;;;;;;5105965;28;20418;-89
2021/07/13 05:11:13;;;;;;;5.82;4.80;;;19.90;96.70;;;;;;5117933;28;20046;-89
2021/07/13 05:13:40;;;;;;;4.57;4.15;;;20.00;96.60;;;;;;5116893;28;20036;-88
2021/07/13 05:16:06;;;;;;;4.57;3.92;;;20.00;96.50;;;;;;5104105;28;20044;-88
2021/07/13 05:18:33;;;;;;;4.70;4.15;;;20.10;96.60;;;;;;5096727;28;20048;-87
2021/07/13 05:21:02;;;;;;;3.80;3.40;;;20.10;96.40;;;;;;5099016;28;20054;-89
2021/07/13 05:23:27;;;;;;;6.55;4.00;;;20.20;96.30;;;;;;5100309;28;20043;-88
2021/07/13 05:25:53;;;;;;;7.22;4.30;;;20.20;96.10;;;;;;5096175;28;20051;-91
2021/07/13 05:28:18;;;;;;;4.88;3.15;;;20.30;96.20;;;;;;5096706;28;20048;-88
2021/07/13 05:30:45;;;;;;;8.15;3.88;;;20.40;96.00;;;;;;5098529;28;20372;-88
2021/07/13 05:33:12;;;;;;;5.95;3.65;;;20.50;95.80;;;;;;5100960;28;20590;-90
2021/07/13 05:35:39;;;;;;;5.60;4.30;;;20.50;95.60;;;;;;5100339;28;20093;-90
2021/07/13 05:38:05;;;;;;;5.90;3.97;;;20.60;95.70;;;;;;5101145;28;20074;-90
2021/07/13 05:40:31;;;;;;;5.97;3.95;;;20.60;95.50;;;;;;5102336;28;20039;-89
2021/07/13 05:42:56;;;;;;;3.90;3.00;;;20.70;95.30;;;;;;5100782;28;20058;-89
2021/07/13 05:45:23;;;;;;;9.77;3.53;;;20.70;95.20;;;;;;5099889;28;20036;-88
2021/07/13 05:47:49;;;;;;;6.25;3.65;;;20.80;95.50;;;;;;5100120;28;20040;-90
2021/07/13 05:50:14;;;;;;;4.72;3.70;;;20.80;95.20;;;;;;5101238;28;20047;-89
2021/07/13 05:52:40;;;;;;;3.55;3.20;;;20.90;95.10;;;;;;5101489;28;20123;-91
2021/07/13 05:55:07;;;;;;;6.78;3.42;;;20.90;94.80;;;;;;5104725;28;20040;-89
2021/07/13 05:57:33;;;;;;;3.92;3.00;;;21.00;94.20;;;;;;5113973;28;20047;-89
2021/07/13 05:59:59;;;;;;;6.47;2.90;;;21.10;94.20;;;;;;5106688;28;20122;-89
2021/07/13 06:02:24;;;;;;;4.13;3.10;;;21.20;94.00;;;;;;5115908;28;20159;-89
2021/07/13 06:04:50;;;;;;;4.47;2.90;;;21.20;93.90;;;;;;5121727;28;20036;-89
2021/07/13 06:07:16;;;;;;;4.35;2.60;;;21.30;94.00;;;;;;5119575;28;20031;-88
2021/07/13 06:09:41;;;;;;;2.95;2.40;;;21.40;93.50;;;;;;5111001;28;20047;-87
2021/07/13 06:12:07;;;;;;;3.40;3.08;;;21.50;93.50;;;;;;5119674;28;20044;-88
2021/07/13 06:14:36;;;;;;;4.70;2.72;;;21.50;93.60;;;;;;5125267;28;20039;-89
2021/07/13 06:17:05;;;;;;;5.20;2.75;;;21.60;93.60;;;;;;5125223;28;20035;-88
2021/07/13 06:19:30;;;;;;;3.20;2.40;;;21.70;93.40;;;;;;5121001;28;20043;-89
2021/07/13 06:21:55;;;;;;;5.22;3.00;;;21.80;93.40;;;;;;5120400;28;20100;-89
2021/07/13 06:24:21;;;;;;;3.90;2.72;;;21.90;94.00;;;;;;5120352;28;20291;-89
2021/07/13 06:26:46;;;;;;;4.50;2.65;;;21.90;93.70;;;;;;5120282;28;20082;-88
2021/07/13 06:29:12;;;;;;;2.88;2.40;;;22.10;92.60;;;;;;5121195;28;20347;-88
2021/07/13 06:31:37;;;;;;;5.72;2.10;;;22.10;92.60;;;;;;5119278;28;20039;-89
2021/07/13 06:34:03;;;;;;;4.45;2.92;;;22.20;93.10;;;;;;5100741;28;20040;-88
2021/07/13 06:36:29;;;;;;;3.47;2.38;;;22.30;93.00;;;;;;5098957;28;20036;-88
2021/07/13 06:38:54;;;;;;;6.65;2.30;;;22.40;92.90;;;;;;5098884;28;20051;-88
2021/07/13 06:41:20;;;;;;;2.70;2.22;;;22.50;92.30;;;;;;5098873;28;20119;-89
2021/07/13 06:43:45;;;;;;;2.90;2.28;;;22.70;91.80;;;;;;5111774;28;20127;-89
2021/07/13 06:46:11;;;;;;;4.13;2.08;;;22.70;92.30;;;;;;5113076;28;20134;-89
2021/07/13 06:48:36;;;;;;;3.97;2.17;;;22.80;91.90;;;;;;5118481;28;20039;-88
2021/07/13 06:51:02;;;;;;;7.50;2.42;;;22.90;92.10;;;;;;5118918;28;20069;-87
2021/07/13 06:53:30;;;;;;;4.65;2.83;;;23.10;92.30;;;;;;5113071;28;20043;-88
2021/07/13 06:55:55;;;;;;;8.05;2.63;;;23.20;92.60;;;;;;5118401;28;20043;-88
2021/07/13 06:58:21;;;;;;;2.60;2.05;;;23.30;92.30;;;;;;5107112;28;20464;-88
2021/07/13 07:00:47;;;;;;;2.50;2.15;;;23.40;90.80;;;;;;5100580;28;20052;-87
2021/07/13 07:03:13;;;;;;;4.70;2.08;;;23.60;90.50;;;;;;5098727;28;20102;-89
2021/07/13 07:05:40;;;;;;;3.75;2.03;;;23.70;90.60;;;;;;5110187;28;20040;-89
2021/07/13 07:08:06;;;;;;;3.65;2.05;;;23.80;91.10;;;;;;5097448;28;20127;-88
2021/07/13 07:10:33;;;;;;;2.60;2.17;;;24.00;90.70;;;;;;5107295;28;20099;-87
2021/07/13 07:12:58;;;;;;;7.10;1.75;;;24.10;91.20;;;;;;5119149;28;20031;-89
2021/07/13 07:15:24;;;;;;;2.80;2.38;;;24.20;90.20;;;;;;5118919;28;20049;-88
2021/07/13 07:17:52;;;;;;;2.15;1.95;;;24.30;89.40;;;;;;5120773;28;20082;-89
2021/07/13 07:20:28;;;;;;;6.53;1.95;;;24.40;89.20;;;;;;5125259;28;20044;-88
2021/07/13 07:22:56;;;;;;;3.38;2.03;;;24.50;90.30;;;;;;5103149;28;20126;-88
2021/07/13 07:25:22;;;;;;;2.08;1.80;;;24.60;89.10;;;;;;5119056;28;20035;-89
2021/07/13 07:27:48;;;;;;;3.08;1.63;;;24.60;89.20;;;;;;5116634;28;20032;-87
2021/07/13 07:30:16;;;;;;;2.67;2.13;;;24.70;87.80;;;;;;5117794;28;20126;-89
2021/07/13 07:32:44;;;;;;;2.45;1.80;;;24.70;86.30;;;;;;5113925;28;20151;-87
2021/07/13 07:35:13;;;;;;;5.80;1.92;;;24.80;86.90;;;;;;5104558;28;20075;-86
2021/07/13 07:37:40;;;;;;;2.88;2.13;;;24.90;87.90;;;;;;5113594;28;20047;-86
2021/07/13 07:40:08;;;;;;;4.03;2.10;;;24.90;88.70;;;;;;5109448;28;20043;-84
2021/07/13 07:42:34;;;;;;;3.22;2.10;;;24.90;87.10;;;;;;5115384;28;20035;-83
2021/07/13 07:45:00;;;;;;;2.47;1.80;;;24.90;87.40;;;;;;5097097;28;20303;-83
2021/07/13 07:47:25;;;;;;;3.25;2.33;;;25.10;86.70;;;;;;5100792;28;20122;-83
2021/07/13 07:49:51;;;;;;;2.58;1.95;;;25.10;89.70;;;;;;5108261;28;20058;-85
2021/07/13 07:52:16;;;;;;;2.85;1.90;;;25.30;87.10;;;;;;5099494;28;20496;-84
2021/07/13 07:54:42;;;;;;;2.55;1.90;;;25.40;86.80;;;;;;5116889;28;20298;-84
2021/07/13 07:57:08;;;;;;;2.60;1.40;;;25.60;85.30;;;;;;5125559;28;20040;-84
2021/07/13 07:59:33;;;;;;;3.13;1.08;;;25.60;83.70;;;;;;5102481;28;20075;-84
2021/07/13 08:01:59;;;;;;;5.45;1.23;;;25.70;85.30;;;;;;5095158;28;20036;-85
2021/07/13 08:04:24;;;;;;;2.30;1.67;;;25.80;86.50;;;;;;5096623;28;20429;-84
2021/07/13 08:06:50;;;;;;;8.07;1.30;;;26.00;88.20;;;;;;5095710;28;20042;-85
2021/07/13 08:09:15;;;;;;;1.70;1.08;;;26.10;85.80;;;;;;5096006;28;20342;-84
2021/07/13 08:11:41;;;;;;;1.02;0.82;;;26.20;81.90;;;;;;5108584;28;20039;-84
2021/07/13 08:14:06;;;;;;;1.73;1.10;;;26.30;81.20;;;;;;5115662;28;20382;-84
2021/07/13 08:16:35;;;;;;;1.88;1.13;;;26.40;83.60;;;;;;5098812;28;20036;-85
2021/07/13 08:19:01;;;;;;;3.30;1.00;;;26.70;83.40;;;;;;5115072;28;20153;-85
2021/07/13 08:21:27;;;;;;;1.50;1.17;;;26.80;83.00;;;;;;5115963;28;20347;-85
2021/07/13 08:23:52;;;;;;;1.95;0.90;;;27.00;81.90;;;;;;5115680;28;20043;-84
2021/07/13 08:26:18;;;;;;;2.53;1.10;;;27.20;81.00;;;;;;5115923;28;20058;-83
2021/07/13 08:28:43;;;;;;;1.00;0.90;;;27.30;78.00;;;;;;5114725;28;20063;-83
2021/07/13 08:31:09;;;;;;;2.55;1.00;;;27.40;81.40;;;;;;5101410;28;20105;-84
2021/07/13 08:33:34;;;;;;;1.83;1.15;;;27.40;79.60;;;;;;5096089;28;20032;-85
2021/07/13 08:36:00;;;;;;;1.92;1.00;;;27.40;81.20;;;;;;5095499;28;20081;-83
2021/07/13 08:38:25;;;;;;;1.00;0.90;;;27.50;77.80;;;;;;5109182;28;20108;-84
2021/07/13 08:40:51;;;;;;;2.17;1.23;;;27.50;78.50;;;;;;5118720;28;20108;-84
2021/07/13 08:43:17;;;;;;;3.80;0.98;;;27.70;81.80;;;;;;5108218;28;20115;-85
2021/07/13 08:45:43;;;;;;;2.90;1.35;;;27.90;80.50;;;;;;5095596;28;20127;-87
2021/07/13 08:48:12;;;;;;;0.98;0.88;;;28.10;77.40;;;;;;5096248;28;20036;-82
2021/07/13 08:50:38;;;;;;;3.05;0.95;;;28.20;77.50;;;;;;5095310;28;20032;-84
2021/07/13 08:53:04;;;;;;;1.60;1.10;;;28.30;78.60;;;;;;5108609;28;20042;-84
2021/07/13 08:55:29;;;;;;;3.72;1.40;;;28.40;79.30;;;;;;5115431;28;20299;-84
2021/07/13 08:57:55;;;;;;;1.65;1.25;;;28.50;79.90;;;;;;5115626;28;20039;-84
2021/07/13 09:00:20;;;;;;;2.47;0.90;;;28.50;76.60;;;;;;5113863;28;20043;-84
2021/07/13 09:03:06;;;;;;;3.20;1.20;;;28.50;77.50;;;;;;5114339;28;20036;-83
2021/07/13 09:05:46;;;;;;;1.90;1.25;;;28.40;77.30;;;;;;5114605;28;20059;-84
2021/07/13 09:08:16;;;;;;;1.67;1.38;;;28.30;77.90;;;;;;5119797;28;20028;-84
2021/07/13 09:11:02;;;;;;;1.50;1.27;;;28.30;79.40;;;;;;5114118;28;20055;-84
2021/07/13 09:13:31;;;;;;;1.52;1.42;;;28.20;78.70;;;;;;5119681;28;20100;-83
2021/07/13 09:15:58;;;;;;;1.92;1.10;;;28.20;80.70;;;;;;5124923;28;20055;-84
2021/07/13 09:18:37;;;;;;;1.17;1.00;;;28.20;80.00;;;;;;5120150;28;20111;-84
2021/07/13 09:21:08;;;;;;;4.03;1.10;;;28.30;80.30;;;;;;5116650;28;20062;-84
2021/07/13 09:23:34;;;;;;;1.45;1.23;;;28.40;80.40;;;;;;5113088;28;20111;-84
2021/07/13 09:25:59;;;;;;;1.85;1.33;;;28.60;79.00;;;;;;5117341;28;20154;-83
2021/07/13 09:28:25;;;;;;;1.30;1.13;;;28.70;79.10;;;;;;5119938;28;20118;-84
2021/07/13 09:30:56;;;;;;;3.30;1.38;;;28.80;78.80;;;;;;5119656;28;20338;-85
2021/07/13 09:33:33;;;;;;;4.30;1.65;;;28.90;77.60;;;;;;5121035;28;20038;-85
2021/07/13 09:36:11;;;;;;;2.35;1.60;;;29.00;77.40;;;;;;5118839;28;20039;-85
2021/07/13 09:38:53;;;;;;;2.60;1.60;;;29.10;78.30;;;;;;5120279;28;20024;-86
2021/07/13 09:41:21;;;;;;;1.98;1.58;;;29.10;76.70;;;;;;5120837;28;20053;-86
2021/07/13 09:43:59;;;;;;;2.67;1.67;;;29.10;76.90;;;;;;5118470;28;20039;-85
2021/07/13 09:46:36;;;;;;;2.30;1.27;;;29.10;75.40;;;;;;5117458;28;20076;-90
2021/07/13 09:49:16;;;;;;;2.72;1.40;;;28.90;75.90;;;;;;5125042;28;20510;-87
2021/07/13 09:51:48;;;;;;;1.92;1.40;;;28.80;75.70;;;;;;5118565;28;20039;-87
2021/07/13 09:54:34;;;;;;;4.70;2.70;;;28.70;76.00;;;;;;5117797;28;20047;-87
2021/07/13 09:57:01;;;;;;;4.60;2.38;;;28.50;76.60;;;;;;5110164;28;20040;-87
2021/07/13 09:59:27;;;;;;;1.73;1.63;;;28.40;76.70;;;;;;5117651;28;20043;-87
2021/07/13 10:01:52;;;;;;;1.90;1.70;;;28.20;78.40;;;;;;5117624;28;20035;-85
2021/07/13 10:04:18;;;;;;;4.22;2.30;;;28.10;78.60;;;;;;5118637;28;20035;-86
2021/07/13 10:06:48;;;;;;;2.92;2.00;;;28.10;80.40;;;;;;5117955;28;20036;-86
2021/07/13 10:09:14;;;;;;;3.55;2.08;;;28.10;79.20;;;;;;5114978;28;20047;-84
2021/07/13 10:11:41;;;;;;;3.63;2.05;;;28.00;80.60;;;;;;5105292;28;20036;-86
2021/07/13 10:14:10;;;;;;;2.90;2.10;;;28.00;80.60;;;;;;5099312;28;20040;-85
2021/07/13 10:16:36;;;;;;;3.97;2.50;;;27.90;81.30;;;;;;5098293;28;20036;-86
2021/07/13 10:19:05;;;;;;;7.43;2.13;;;27.80;81.30;;;;;;5097504;28;20036;-85
2021/07/13 10:21:30;;;;;;;2.55;1.95;;;27.80;81.00;;;;;;5102117;28;20333;-85
2021/07/13 10:23:57;;;;;;;2.55;2.20;;;27.90;81.10;;;;;;5118691;28;20046;-88
2021/07/13 10:26:49;;;;;;;4.15;2.35;;;27.80;81.60;;;;;;5118161;28;20118;-85
2021/07/13 10:29:32;;;;;;;3.45;2.13;;;27.80;81.30;;;;;;5117192;28;20036;-87
2021/07/13 10:32:04;;;;;;;2.92;2.35;;;27.80;81.90;;;;;;5115705;28;20331;-86
2021/07/13 10:34:45;;;;;;;4.82;2.22;;;27.80;82.70;;;;;;5111157;28;20055;-85
2021/07/13 10:37:36;;;;;;;2.85;2.10;;;27.80;81.70;;;;;;5116697;28;20125;-86
2021/07/13 10:40:13;;;;;;;3.97;2.78;;;27.90;79.90;;;;;;5108180;28;20075;-86
2021/07/13 10:42:42;;;;;;;3.25;2.53;;;27.90;79.40;;;;;;5111326;28;20314;-86
2021/07/13 10:45:27;;;;;;;3.45;2.50;;;27.90;79.50;;;;;;5115758;28;20106;-85
2021/07/13 10:48:15;;;;;;;5.78;2.33;;;27.90;80.30;;;;;;5117670;28;20055;-86
2021/07/13 10:50:44;;;;;;;3.17;2.63;;;27.90;80.20;;;;;;5115346;28;20039;-85
2021/07/13 10:53:39;;;;;;;2.25;2.05;;;27.90;80.40;;;;;;5108234;28;20045;-85
2021/07/13 10:56:06;;;;;;;2.20;2.00;;;27.90;80.70;;;;;;5106722;28;20035;-86
2021/07/13 10:58:34;;;;;;;3.42;2.78;;;27.90;80.50;;;;;;5115426;28;20069;-85
2021/07/13 11:01:02;;;;;;;4.53;3.28;;;27.90;82.60;;;;;;5119254;28;20043;-85
2021/07/13 11:03:31;;;;;;;5.65;3.20;;;27.90;81.00;;;;;;5115243;28;20036;-85
2021/07/13 11:05:57;;;;;;;4.80;2.75;;;28.00;80.40;;;;;;5097673;28;20051;-85
2021/07/13 11:08:47;;;;;;;3.55;2.80;;;28.00;81.20;;;;;;5116282;28;20130;-84
2021/07/13 11:11:18;;;;;;;3.95;2.67;;;28.20;80.30;;;;;;5104960;28;20036;-85
2021/07/13 11:13:52;;;;;;;5.88;3.88;;;28.50;81.60;;;;;;5108755;28;20692;-84
2021/07/13 11:16:26;;;;;;;3.85;3.35;;;28.80;80.60;;;;;;5112224;28;20039;-85
2021/07/13 11:18:53;;;;;;;3.40;3.10;;;29.10;79.50;;;;;;5108834;28;20074;-84
2021/07/13 11:21:21;;;;;;;3.28;2.97;;;29.30;78.30;;;;;;5115910;28;20047;-84
2021/07/13 11:23:58;;;;;;;7.30;3.22;;;29.40;77.50;;;;;;5112220;28;20032;-84
2021/07/13 11:26:25;;;;;;;3.53;3.20;;;29.50;79.10;;;;;;5114191;28;20040;-86
2021/07/13 11:28:55;;;;;;;3.60;3.10;;;29.60;76.70;;;;;;5115114;28;20032;-85
2021/07/13 11:31:23;;;;;;;3.08;2.72;;;29.70;77.40;;;;;;5116693;28;20031;-86
2021/07/13 11:33:56;;;;;;;3.67;3.30;;;29.80;79.30;;;;;;5113906;28;20066;-86
2021/07/13 11:36:31;;;;;;;3.85;2.65;;;29.90;76.70;;;;;;5115161;28;20047;-86
2021/07/13 11:38:58;;;;;;;3.42;2.97;;;29.90;76.00;;;;;;5115502;28;20493;-86
2021/07/13 11:41:26;;;;;;;8.35;2.50;;;29.90;76.90;;;;;;5113388;28;20047;-85
2021/07/13 11:43:53;;;;;;;3.88;2.65;;;29.90;77.60;;;;;;5114510;28;20039;-86
2021/07/13 11:46:27;;;;;;;2.75;2.25;;;29.90;74.90;;;;;;5114407;28;20039;-88
2021/07/13 11:48:55;;;;;;;3.13;2.20;;;29.80;74.50;;;;;;5115179;28;20042;-85
2021/07/13 11:51:40;;;;;;;4.85;2.75;;;29.70;75.20;;;;;;5117224;28;20047;-85
2021/07/13 11:54:06;;;;;;;2.78;2.10;;;29.70;74.40;;;;;;5119470;28;20138;-85
2021/07/13 11:56:33;;;;;;;2.95;2.50;;;29.70;74.00;;;;;;5118932;28;20094;-86
2021/07/13 11:59:00;;;;;;;3.05;2.47;;;29.70;75.60;;;;;;5117348;28;20046;-84
2021/07/13 12:01:28;;;;;;;3.30;2.28;;;29.70;75.30;;;;;;5107774;28;20096;-86
2021/07/13 12:03:55;;;;;;;3.17;2.20;;;29.80;77.50;;;;;;5109789;28;20036;-85
2021/07/13 12:06:22;;;;;;;2.42;2.17;;;29.90;76.10;;;;;;5115514;27;20035;-84
2021/07/13 12:08:53;;;;;;;2.85;2.45;;;30.00;76.20;;;;;;5114499;28;20126;-86
2021/07/13 12:11:31;;;;;;;2.25;1.83;;;30.30;74.10;;;;;;5114732;28;20040;-86
2021/07/13 12:13:59;;;;;;;2.28;1.88;;;30.50;75.80;;;;;;5112325;28;20100;-86
2021/07/13 12:16:31;;;;;;;5.88;1.63;;;30.70;73.20;;;;;;5115708;28;20039;-85
2021/07/13 12:19:03;;;;;;;3.00;1.70;;;30.90;71.30;;;;;;5115037;28;20047;-85
2021/07/13 12:21:29;;;;;;;;;;;31.00;72.60;;;;;;5113428;28;20322;-86
2021/07/13 12:23:58;;;;;;;2.20;1.58;;;31.20;70.70;;;;;;5111495;28;19978;-87
2021/07/13 12:26:32;;;;;;;3.17;1.48;;;31.20;70.70;;;;;;5115094;28;20028;-85
2021/07/13 12:29:09;;;;;;;2.40;1.83;;;31.20;72.30;;;;;;5113055;28;20050;-87
2021/07/13 12:31:38;;;;;;;2.10;1.55;;;31.40;70.30;;;;;;5122070;27;20043;-84
2021/07/13 12:34:22;;;;;;;2.60;2.05;;;31.50;71.40;;;;;;5123725;28;20119;-84
2021/07/13 12:36:49;;;;;;;2.35;1.70;;;31.60;72.40;;;;;;5102700;28;20467;-86
2021/07/13 12:39:22;;;;;;;2.35;1.55;;;31.70;68.20;;;;;;5113242;28;20100;-84
2021/07/13 12:42:10;;;;;;;2.13;1.60;;;31.80;68.10;;;;;;5113452;28;20043;-85
2021/07/13 12:44:46;;;;;;;3.30;1.50;;;31.80;70.00;;;;;;5101825;28;20027;-86
2021/07/13 12:47:16;;;;;;;2.92;1.67;;;31.90;67.90;;;;;;5114830;28;20087;-84
2021/07/13 12:49:43;;;;;;;1.85;1.45;;;31.70;67.50;;;;;;5110855;28;20096;-85
2021/07/13 12:52:09;;;;;;;2.25;1.55;;;31.70;68.00;;;;;;5102184;28;20039;-85
2021/07/13 12:54:54;;;;;;;2.45;1.40;;;31.80;66.70;;;;;;5115043;28;20036;-84